Time;durP1;ratioP1;P1;durP2;ratioP2;P2;SDS_P1;SDS_P2;PMS_P1;PMS_P2;Temp;Humidity;BMP_temperature;BMP_pressure;BME280_temperature;BME280_humidity;BME280_pressure;Samples;Min_cycle;Max_cycle;Signal;HPM_P1;HPM_P2
2023/12/24 00:01:06;;;;;;;46.67;44.60;;;;;;;;;;5100560;28;20043;-88
2023/12/24 00:03:33;;;;;;;26.00;24.55;;;;;;;;;;5094307;28;20452;-87
2023/12/24 00:06:00;;;;;;;45.95;44.03;;;;;;;;;;5096068;28;20490;-87
2023/12/24 00:08:28;;;;;;;49.17;47.05;;;;;;;;;;5105537;28;20093;-86
2023/12/24 00:10:54;;;;;;;48.55;46.33;;;;;;;;;;5108522;28;20126;-87
2023/12/24 00:13:22;;;;;;;49.25;47.03;;;;;;;;;;5102765;28;20052;-88
2023/12/24 00:15:49;;;;;;;46.05;44.22;;;;;;;;;;5097061;28;20048;-87
2023/12/24 00:18:15;;;;;;;50.08;48.00;;;;;;;;;;5099225;28;20070;-87
2023/12/24 00:20:42;;;;;;;47.75;45.35;;;;;;;;;;5113389;28;20125;-88
2023/12/24 00:23:09;;;;;;;43.83;41.83;;;;;;;;;;5117462;28;20104;-87
2023/12/24 00:25:36;;;;;;;52.38;49.88;;;;;;;;;;5117771;28;20040;-88
2023/12/24 00:28:03;;;;;;;26.92;25.33;;;;;;;;;;5117563;28;20443;-86
2023/12/24 00:30:31;;;;;;;36.95;35.30;;;;;;;;;;5114214;28;20043;-87
2023/12/24 00:32:58;;;;;;;41.45;39.53;;;;;;;;;;5117656;28;20051;-87
2023/12/24 00:35:25;;;;;;;38.15;36.05;;;;;;;;;;5117393;28;20105;-87
2023/12/24 00:37:52;;;;;;;43.25;41.30;;;;;;;;;;5117603;28;20047;-87
2023/12/24 00:40:19;;;;;;;46.95;44.90;;;;;;;;;;5108401;28;20180;-87
2023/12/24 00:42:46;;;;;;;40.75;38.75;;;;;;;;;;5097190;28;20391;-87
2023/12/24 00:45:12;;;;;;;42.15;40.45;;;;;;;;;;5096704;28;20048;-87
2023/12/24 00:47:40;;;;;;;36.58;34.97;;;;;;;;;;5097010;28;20047;-87
2023/12/24 00:50:08;;;;;;;27.45;26.00;;;;;;;;;;5096542;28;20460;-87
2023/12/24 00:52:34;;;;;;;42.08;40.17;;;;;;;;;;5096336;28;20551;-87
2023/12/24 00:55:01;;;;;;;43.40;41.80;;;;;;;;;;5096552;28;20047;-87
2023/12/24 00:57:27;;;;;;;18.33;17.50;;;;;;;;;;5096429;28;20515;-87
2023/12/24 00:59:54;;;;;;;35.88;34.08;;;;;;;;;;5096367;28;20056;-87
2023/12/24 01:02:20;;;;;;;30.50;29.27;;;;;;;;;;5096608;28;20048;-87
2023/12/24 01:04:48;;;;;;;24.15;22.95;;;;;;;;;;5096618;28;20459;-87
2023/12/24 01:07:17;;;;;;;23.30;22.17;;;;;;;;;;5096105;28;20494;-87
2023/12/24 01:09:43;;;;;;;39.42;37.83;;;;;;;;;;5096745;28;20095;-88
2023/12/24 01:12:10;;;;;;;37.03;35.33;;;;;;;;;;5096268;28;20048;-87
2023/12/24 01:14:36;;;;;;;39.13;37.30;;;;;;;;;;5096269;28;20048;-87
2023/12/24 01:17:03;;;;;;;43.88;41.83;;;;;;;;;;5095835;28;20052;-87
2023/12/24 01:19:30;;;;;;;38.38;36.95;;;;;;;;;;5096314;28;20076;-87
2023/12/24 01:21:58;;;;;;;38.53;36.85;;;;;;;;;;5096888;28;20052;-87
2023/12/24 01:24:25;;;;;;;36.88;35.38;;;;;;;;;;5096114;28;20052;-87
2023/12/24 01:26:51;;;;;;;41.80;40.10;;;;;;;;;;5095598;28;20044;-87
2023/12/24 01:29:18;;;;;;;37.67;36.35;;;;;;;;;;5100374;28;20059;-86
2023/12/24 01:31:44;;;;;;;39.45;37.88;;;;;;;;;;5115496;28;20498;-86
2023/12/24 01:34:11;;;;;;;39.65;37.78;;;;;;;;;;5116321;28;20044;-86
2023/12/24 01:36:38;;;;;;;40.88;39.30;;;;;;;;;;5115825;28;20089;-87
2023/12/24 01:39:07;;;;;;;46.15;44.42;;;;;;;;;;5116144;28;20459;-86
2023/12/24 01:41:34;;;;;;;37.70;36.20;;;;;;;;;;5116234;28;20058;-86
2023/12/24 01:44:00;;;;;;;41.00;39.55;;;;;;;;;;5115759;28;20139;-87
2023/12/24 01:46:27;;;;;;;39.20;37.40;;;;;;;;;;5116203;28;20106;-86
2023/12/24 01:48:54;;;;;;;40.60;38.80;;;;;;;;;;5100667;28;20117;-86
2023/12/24 01:51:22;;;;;;;40.15;38.67;;;;;;;;;;5111631;28;20043;-86
2023/12/24 01:53:50;;;;;;;44.92;42.97;;;;;;;;;;5108166;28;20105;-86
2023/12/24 01:56:20;;;;;;;45.88;44.05;;;;;;;;;;5105654;28;20040;-86
2023/12/24 01:58:47;;;;;;;40.10;38.47;;;;;;;;;;5115737;28;20047;-86
2023/12/24 02:01:14;;;;;;;36.42;34.92;;;;;;;;;;5115926;28;20126;-86
2023/12/24 02:03:41;;;;;;;36.70;35.10;;;;;;;;;;5115322;28;20092;-86
2023/12/24 02:06:09;;;;;;;34.53;33.00;;;;;;;;;;5115390;28;20134;-86
2023/12/24 02:08:36;;;;;;;26.65;25.45;;;;;;;;;;5115530;28;20455;-86
2023/12/24 02:11:03;;;;;;;33.90;32.33;;;;;;;;;;5115807;28;20047;-86
2023/12/24 02:13:31;;;;;;;32.67;31.17;;;;;;;;;;5115333;28;20092;-87
2023/12/24 02:15:58;;;;;;;38.30;36.30;;;;;;;;;;5115818;28;20172;-87
2023/12/24 02:18:25;;;;;;;37.22;35.85;;;;;;;;;;5115242;28;20043;-87
2023/12/24 02:20:51;;;;;;;31.13;29.73;;;;;;;;;;5115399;28;20077;-87
2023/12/24 02:23:19;;;;;;;34.22;32.85;;;;;;;;;;5114930;28;20058;-87
2023/12/24 02:25:49;;;;;;;32.47;31.08;;;;;;;;;;5115616;28;20051;-87
2023/12/24 02:28:20;;;;;;;34.00;32.35;;;;;;;;;;5114572;28;20397;-86
2023/12/24 02:30:48;;;;;;;36.50;35.10;;;;;;;;;;5115470;28;20051;-87
2023/12/24 02:33:17;;;;;;;40.20;38.67;;;;;;;;;;5115096;28;20058;-86
2023/12/24 02:35:43;;;;;;;42.45;40.70;;;;;;;;;;5115076;28;20051;-87
2023/12/24 02:38:10;;;;;;;34.53;33.15;;;;;;;;;;5115087;28;20097;-87
2023/12/24 02:40:38;;;;;;;21.13;20.20;;;;;;;;;;5114662;28;20044;-86
2023/12/24 02:43:04;;;;;;;35.10;33.55;;;;;;;;;;5098015;28;20081;-86
2023/12/24 02:45:31;;;;;;;43.55;41.60;;;;;;;;;;5094364;28;20097;-87
2023/12/24 02:47:57;;;;;;;39.55;38.05;;;;;;;;;;5094121;28;20579;-87
2023/12/24 02:50:24;;;;;;;38.33;36.53;;;;;;;;;;5093989;28;20051;-87
2023/12/24 02:52:50;;;;;;;31.65;30.25;;;;;;;;;;5094425;28;20048;-87
2023/12/24 02:55:17;;;;;;;41.30;39.53;;;;;;;;;;5094010;28;20094;-86
2023/12/24 02:57:45;;;;;;;37.08;35.63;;;;;;;;;;5111274;28;20048;-87
2023/12/24 03:00:12;;;;;;;35.08;33.65;;;;;;;;;;5114514;28;20044;-87
2023/12/24 03:02:38;;;;;;;32.75;30.92;;;;;;;;;;5114622;28;20051;-86
2023/12/24 03:05:05;;;;;;;35.72;34.33;;;;;;;;;;5114904;28;20040;-87
2023/12/24 03:07:31;;;;;;;35.67;33.75;;;;;;;;;;5114667;28;20159;-87
2023/12/24 03:09:58;;;;;;;37.13;35.55;;;;;;;;;;5113856;28;20051;-86
2023/12/24 03:12:24;;;;;;;37.08;35.33;;;;;;;;;;5106774;28;20082;-86
2023/12/24 03:14:52;;;;;;;37.80;36.47;;;;;;;;;;5094225;28;20052;-86
2023/12/24 03:17:19;;;;;;;16.58;15.82;;;;;;;;;;5103176;28;20043;-86
2023/12/24 03:19:45;;;;;;;33.75;32.40;;;;;;;;;;5114353;28;20048;-86
2023/12/24 03:22:12;;;;;;;39.70;37.85;;;;;;;;;;5114402;28;20451;-87
2023/12/24 03:24:38;;;;;;;33.95;32.42;;;;;;;;;;5113679;28;20055;-86
2023/12/24 03:27:05;;;;;;;29.08;27.88;;;;;;;;;;5113821;28;20090;-86
2023/12/24 03:29:32;;;;;;;35.33;33.92;;;;;;;;;;5114151;28;20108;-86
2023/12/24 03:31:59;;;;;;;30.38;29.27;;;;;;;;;;5113817;28;20051;-86
2023/12/24 03:34:26;;;;;;;27.55;26.52;;;;;;;;;;5113600;28;20058;-86
2023/12/24 03:36:53;;;;;;;21.98;20.48;;;;;;;;;;5113497;28;20431;-86
2023/12/24 03:39:19;;;;;;;43.58;41.80;;;;;;;;;;5113556;28;20048;-86
2023/12/24 03:41:46;;;;;;;43.30;40.50;;;;;;;;;;5113465;28;20485;-86
2023/12/24 03:44:12;;;;;;;18.85;18.10;;;;;;;;;;5113800;28;20048;-86
2023/12/24 03:46:39;;;;;;;33.33;31.85;;;;;;;;;;5112240;28;20052;-86
2023/12/24 03:49:09;;;;;;;34.95;33.35;;;;;;;;;;5093391;28;20066;-86
2023/12/24 03:51:36;;;;;;;21.13;20.10;;;;;;;;;;5093438;28;20512;-86
2023/12/24 03:54:02;;;;;;;41.05;39.22;;;;;;;;;;5093175;28;20485;-86
2023/12/24 03:56:29;;;;;;;32.63;31.27;;;;;;;;;;5093482;28;20108;-86
2023/12/24 03:58:54;;;;;;;38.15;36.65;;;;;;;;;;5093196;28;20051;-86
2023/12/24 04:01:24;;;;;;;35.45;33.85;;;;;;;;;;5104757;28;20043;-86
2023/12/24 04:03:51;;;;;;;34.95;33.60;;;;;;;;;;5113484;28;20059;-86
2023/12/24 04:06:19;;;;;;;42.78;40.90;;;;;;;;;;5113407;28;20048;-86
2023/12/24 04:08:45;;;;;;;35.50;33.95;;;;;;;;;;5113440;28;20063;-85
2023/12/24 04:11:12;;;;;;;42.58;40.63;;;;;;;;;;5113448;28;20044;-86
2023/12/24 04:13:39;;;;;;;47.50;45.58;;;;;;;;;;5113556;28;20101;-86
2023/12/24 04:16:06;;;;;;;40.85;39.15;;;;;;;;;;5113695;28;20051;-86
2023/12/24 04:18:32;;;;;;;28.40;26.98;;;;;;;;;;5111203;28;20048;-86
2023/12/24 04:20:59;;;;;;;37.97;35.85;;;;;;;;;;5102014;28;20044;-87
2023/12/24 04:23:26;;;;;;;37.55;36.05;;;;;;;;;;5093049;28;20482;-87
2023/12/24 04:25:53;;;;;;;39.28;37.47;;;;;;;;;;5104184;28;20485;-86
2023/12/24 04:28:20;;;;;;;35.15;33.55;;;;;;;;;;5112980;28;20044;-86
2023/12/24 04:30:46;;;;;;;34.15;32.75;;;;;;;;;;5113483;28;20414;-86
2023/12/24 04:33:13;;;;;;;39.15;37.45;;;;;;;;;;5113204;28;20048;-87
2023/12/24 04:35:39;;;;;;;34.47;32.92;;;;;;;;;;5113160;28;20117;-86
2023/12/24 04:38:05;;;;;;;35.67;34.35;;;;;;;;;;5113297;28;20048;-86
2023/12/24 04:40:33;;;;;;;32.45;30.92;;;;;;;;;;5112962;28;20554;-87
2023/12/24 04:43:00;;;;;;;26.50;25.27;;;;;;;;;;5113098;28;20463;-86
2023/12/24 04:45:26;;;;;;;37.60;35.75;;;;;;;;;;5113520;28;20055;-87
2023/12/24 04:47:55;;;;;;;29.95;21.85;;;;;;;;;;5112849;28;20434;-87
2023/12/24 04:50:22;;;;;;;33.38;31.52;;;;;;;;;;5112799;28;20048;-87
2023/12/24 04:52:49;;;;;;;34.95;33.15;;;;;;;;;;5116638;28;20039;-87
2023/12/24 04:55:15;;;;;;;34.30;32.42;;;;;;;;;;5116737;28;20054;-87
2023/12/24 04:57:43;;;;;;;42.78;40.42;;;;;;;;;;5116757;28;20048;-86
2023/12/24 05:00:10;;;;;;;36.22;34.47;;;;;;;;;;5116457;28;20047;-87
2023/12/24 05:02:37;;;;;;;36.58;34.38;;;;;;;;;;5111744;28;20097;-87
2023/12/24 05:05:04;;;;;;;30.25;28.70;;;;;;;;;;5096285;28;20505;-87
2023/12/24 05:07:30;;;;;;;34.03;32.45;;;;;;;;;;5095936;28;20094;-87
2023/12/24 05:09:57;;;;;;;35.70;34.10;;;;;;;;;;5095909;28;20048;-87
2023/12/24 05:12:23;;;;;;;31.92;30.20;;;;;;;;;;5095808;28;20551;-86
2023/12/24 05:14:51;;;;;;;31.58;29.88;;;;;;;;;;5096128;28;20052;-86
2023/12/24 05:17:17;;;;;;;37.65;35.72;;;;;;;;;;5096053;28;20044;-87
2023/12/24 05:19:44;;;;;;;32.55;31.15;;;;;;;;;;5096085;28;20391;-86
2023/12/24 05:22:10;;;;;;;36.42;34.92;;;;;;;;;;5110062;28;20051;-87
2023/12/24 05:24:37;;;;;;;31.23;29.95;;;;;;;;;;5116559;28;20043;-87
2023/12/24 05:27:03;;;;;;;33.60;32.20;;;;;;;;;;5116302;28;20072;-86
2023/12/24 05:29:30;;;;;;;28.80;27.60;;;;;;;;;;5116336;28;20490;-86
2023/12/24 05:31:58;;;;;;;35.78;34.22;;;;;;;;;;5107757;28;20105;-86
2023/12/24 05:34:24;;;;;;;38.08;36.13;;;;;;;;;;5095562;28;20102;-86
2023/12/24 05:36:51;;;;;;;29.52;27.58;;;;;;;;;;5095454;28;20089;-86
2023/12/24 05:39:17;;;;;;;29.20;27.88;;;;;;;;;;5095470;28;20051;-86
2023/12/24 05:41:44;;;;;;;21.10;20.23;;;;;;;;;;5095895;28;20452;-87
2023/12/24 05:44:11;;;;;;;33.28;31.58;;;;;;;;;;5095687;28;20048;-86
2023/12/24 05:46:37;;;;;;;35.10;33.47;;;;;;;;;;5095408;28;20501;-87
2023/12/24 05:49:05;;;;;;;30.33;28.60;;;;;;;;;;5101657;28;20105;-87
2023/12/24 05:51:31;;;;;;;28.88;27.65;;;;;;;;;;5097426;28;20231;-87
2023/12/24 05:53:58;;;;;;;28.83;27.58;;;;;;;;;;5106679;28;20048;-87
2023/12/24 05:56:24;;;;;;;17.05;16.33;;;;;;;;;;5095622;28;20448;-87
2023/12/24 05:58:51;;;;;;;31.85;30.25;;;;;;;;;;5095499;28;20093;-87
2023/12/24 06:01:17;;;;;;;33.17;31.60;;;;;;;;;;5094988;28;20487;-87
2023/12/24 06:03:44;;;;;;;34.20;32.83;;;;;;;;;;5095010;28;20109;-86
2023/12/24 06:06:12;;;;;;;34.88;33.40;;;;;;;;;;5094877;28;20109;-89
2023/12/24 06:08:38;;;;;;;41.50;39.42;;;;;;;;;;5094777;28;20053;-87
2023/12/24 06:11:05;;;;;;;23.27;22.20;;;;;;;;;;5112764;28;20456;-88
2023/12/24 06:13:31;;;;;;;42.38;40.25;;;;;;;;;;5100487;28;20106;-87
2023/12/24 06:15:58;;;;;;;44.15;42.03;;;;;;;;;;5095334;28;20125;-87
2023/12/24 06:18:24;;;;;;;37.30;34.90;;;;;;;;;;5094774;28;20076;-87
2023/12/24 06:20:51;;;;;;;44.30;42.45;;;;;;;;;;5094454;28;20468;-87
2023/12/24 06:23:18;;;;;;;45.65;43.72;;;;;;;;;;5108927;28;20063;-87
2023/12/24 06:25:45;;;;;;;43.88;41.88;;;;;;;;;;5114959;28;20048;-87
2023/12/24 06:28:11;;;;;;;43.30;41.42;;;;;;;;;;5114845;28;20053;-86
2023/12/24 06:30:39;;;;;;;37.17;35.38;;;;;;;;;;5109695;28;20100;-87
2023/12/24 06:33:05;;;;;;;37.13;34.92;;;;;;;;;;5113907;28;20047;-86
2023/12/24 06:35:32;;;;;;;41.55;39.40;;;;;;;;;;5099165;28;20047;-87
2023/12/24 06:37:58;;;;;;;39.17;37.05;;;;;;;;;;5115017;28;20105;-87
2023/12/24 06:40:26;;;;;;;42.22;40.33;;;;;;;;;;5114395;28;20051;-87
2023/12/24 06:42:53;;;;;;;23.45;22.27;;;;;;;;;;5108732;28;20456;-88
2023/12/24 06:45:19;;;;;;;33.13;31.90;;;;;;;;;;5094302;28;20101;-87
2023/12/24 06:47:46;;;;;;;31.45;30.10;;;;;;;;;;5100990;28;20565;-88
2023/12/24 06:50:12;;;;;;;35.58;33.65;;;;;;;;;;5102241;28;20048;-87
2023/12/24 06:52:38;;;;;;;36.28;34.67;;;;;;;;;;5114412;28;20498;-87
2023/12/24 06:55:05;;;;;;;33.35;31.50;;;;;;;;;;5114723;28;20108;-87
2023/12/24 06:57:33;;;;;;;17.50;16.58;;;;;;;;;;5115230;28;20440;-87
2023/12/24 07:00:00;;;;;;;40.20;38.30;;;;;;;;;;5115584;28;20127;-87
2023/12/24 07:02:27;;;;;;;41.85;40.15;;;;;;;;;;5114258;28;20047;-87
2023/12/24 07:04:53;;;;;;;27.10;25.30;;;;;;;;;;5114548;28;20730;-87
2023/12/24 07:07:19;;;;;;;45.22;42.97;;;;;;;;;;5114326;28;20104;-86
2023/12/24 07:09:46;;;;;;;40.33;38.63;;;;;;;;;;5114054;28;20104;-86
2023/12/24 07:12:12;;;;;;;45.45;42.63;;;;;;;;;;5113862;28;20063;-88
2023/12/24 07:14:40;;;;;;;25.52;24.13;;;;;;;;;;5114171;28;20413;-90
2023/12/24 07:17:07;;;;;;;49.72;46.88;;;;;;;;;;5114486;28;20048;-87
2023/12/24 07:19:38;;;;;;;42.58;40.85;;;;;;;;;;5115444;28;20493;-87
2023/12/24 07:22:04;;;;;;;43.10;40.95;;;;;;;;;;5113268;28;20047;-87
2023/12/24 07:24:31;;;;;;;48.08;45.22;;;;;;;;;;5112722;28;20043;-87
2023/12/24 07:26:57;;;;;;;60.78;57.92;;;;;;;;;;5114033;28;20107;-87
2023/12/24 07:29:24;;;;;;;54.28;52.10;;;;;;;;;;5113445;28;20082;-86
2023/12/24 07:31:52;;;;;;;45.33;43.20;;;;;;;;;;5111447;28;20113;-86
2023/12/24 07:34:18;;;;;;;52.97;50.65;;;;;;;;;;5093291;28;20044;-86
2023/12/24 07:36:45;;;;;;;55.58;52.63;;;;;;;;;;5093727;28;20126;-86
2023/12/24 07:39:11;;;;;;;47.65;45.40;;;;;;;;;;5093675;28;20055;-86
2023/12/24 07:41:38;;;;;;;55.50;52.90;;;;;;;;;;5098946;28;20040;-87
2023/12/24 07:44:04;;;;;;;47.20;45.00;;;;;;;;;;5110727;28;20489;-88
2023/12/24 07:46:31;;;;;;;56.35;53.88;;;;;;;;;;5093654;28;20101;-87
2023/12/24 07:48:59;;;;;;;53.38;51.15;;;;;;;;;;5093331;28;20047;-88
2023/12/24 07:51:25;;;;;;;49.13;46.67;;;;;;;;;;5093627;28;20048;-87
2023/12/24 07:53:52;;;;;;;31.15;29.90;;;;;;;;;;5102087;28;20456;-87
2023/12/24 07:56:18;;;;;;;51.90;49.28;;;;;;;;;;5113641;28;20105;-87
2023/12/24 07:58:45;;;;;;;60.08;57.28;;;;;;;;;;5113285;28;20048;-87
2023/12/24 08:01:11;;;;;;;46.40;44.05;;;;;;;;;;5110577;28;20055;-87
2023/12/24 08:03:38;;;;;;;57.35;54.38;;;;;;;;;;5113241;28;20408;-87
2023/12/24 08:06:06;;;;;;;55.08;51.75;;;;;;;;;;5113729;28;20101;-87
2023/12/24 08:08:33;;;;;;;65.55;62.42;;;;;;;;;;5113091;28;20039;-87
2023/12/24 08:10:59;;;;;;;28.92;27.52;;;;;;;;;;5113849;28;20507;-87
2023/12/24 08:13:26;;;;;;;55.25;52.58;;;;;;;;;;5112881;28;20055;-87
2023/12/24 08:15:52;;;;;;;47.40;45.30;;;;;;;;;;5092814;28;20048;-87
2023/12/24 08:18:19;;;;;;;48.15;46.28;;;;;;;;;;5105385;28;20048;-86
2023/12/24 08:20:45;;;;;;;55.20;52.35;;;;;;;;;;5100893;28;20047;-87
2023/12/24 08:23:14;;;;;;;57.13;54.40;;;;;;;;;;5092424;28;20048;-87
2023/12/24 08:25:40;;;;;;;65.05;61.80;;;;;;;;;;5093314;28;20083;-87
2023/12/24 08:28:07;;;;;;;68.35;64.60;;;;;;;;;;5102675;28;20108;-87
2023/12/24 08:30:34;;;;;;;70.70;66.85;;;;;;;;;;5096798;28;20113;-87
2023/12/24 08:33:00;;;;;;;70.30;66.50;;;;;;;;;;5096908;28;20044;-87
2023/12/24 08:35:26;;;;;;;65.28;61.95;;;;;;;;;;5096579;28;20048;-88
2023/12/24 08:37:53;;;;;;;71.57;68.07;;;;;;;;;;5096219;28;20386;-87
2023/12/24 08:40:22;;;;;;;67.43;63.80;;;;;;;;;;5100278;28;20044;-88
2023/12/24 08:42:48;;;;;;;81.38;77.53;;;;;;;;;;5110581;28;20065;-88
2023/12/24 08:45:15;;;;;;;62.60;59.47;;;;;;;;;;5096862;28;20048;-88
2023/12/24 08:47:41;;;;;;;74.43;71.35;;;;;;;;;;5096343;28;20521;-88
2023/12/24 08:50:08;;;;;;;64.75;62.15;;;;;;;;;;5104565;28;20062;-87
2023/12/24 08:52:35;;;;;;;43.53;41.78;;;;;;;;;;5118685;28;20691;-88
2023/12/24 08:55:01;;;;;;;79.60;76.10;;;;;;;;;;5117281;28;20104;-88
2023/12/24 08:57:29;;;;;;;71.80;68.65;;;;;;;;;;5116918;28;20489;-88
2023/12/24 08:59:56;;;;;;;80.20;76.68;;;;;;;;;;5116417;28;20051;-88
2023/12/24 09:02:22;;;;;;;72.85;69.55;;;;;;;;;;5119603;28;20051;-89
2023/12/24 09:04:49;;;;;;;58.45;55.70;;;;;;;;;;5103519;28;20390;-89
2023/12/24 09:07:16;;;;;;;80.03;76.20;;;;;;;;;;5106743;28;20150;-89
2023/12/24 09:09:42;;;;;;;50.20;47.42;;;;;;;;;;5116728;28;20459;-88
2023/12/24 09:12:09;;;;;;;78.85;75.38;;;;;;;;;;5116804;28;20044;-88
2023/12/24 09:14:37;;;;;;;94.78;90.72;;;;;;;;;;5116870;28;20058;-89
2023/12/24 09:17:04;;;;;;;91.70;87.60;;;;;;;;;;5116760;28;20164;-89
2023/12/24 09:19:30;;;;;;;100.03;95.57;;;;;;;;;;5116461;28;20044;-88
2023/12/24 09:21:56;;;;;;;93.07;89.13;;;;;;;;;;5116364;28;20101;-88
2023/12/24 09:24:23;;;;;;;92.93;88.95;;;;;;;;;;5116572;28;20120;-88
2023/12/24 09:26:49;;;;;;;91.32;87.50;;;;;;;;;;5114367;28;20047;-89
2023/12/24 09:29:20;;;;;;;114.53;109.75;;;;;;;;;;5095847;28;20490;-89
2023/12/24 09:31:48;;;;;;;62.42;59.92;;;;;;;;;;5096086;28;20460;-89
2023/12/24 09:34:14;;;;;;;61.45;58.53;;;;;;;;;;5111856;28;20440;-89
2023/12/24 09:36:41;;;;;;;89.80;85.70;;;;;;;;;;5116448;28;20044;-89
2023/12/24 09:39:07;;;;;;;87.55;83.70;;;;;;;;;;5116645;28;20051;-90
2023/12/24 09:41:34;;;;;;;97.32;93.38;;;;;;;;;;5116471;28;20051;-90
2023/12/24 09:44:01;;;;;;;67.18;64.28;;;;;;;;;;5116823;28;20448;-90
2023/12/24 09:46:27;;;;;;;105.78;101.28;;;;;;;;;;5116929;28;20051;-90
2023/12/24 09:48:56;;;;;;;110.03;105.43;;;;;;;;;;5116824;28;20076;-90
2023/12/24 09:51:23;;;;;;;73.75;70.05;;;;;;;;;;5116866;28;20386;-88
2023/12/24 09:53:50;;;;;;;117.85;112.90;;;;;;;;;;5115506;28;20071;-87
2023/12/24 09:56:16;;;;;;;113.60;109.13;;;;;;;;;;5121860;28;20055;-87
2023/12/24 09:58:44;;;;;;;107.65;103.40;;;;;;;;;;5116337;28;20048;-86
2023/12/24 10:01:11;;;;;;;111.07;106.72;;;;;;;;;;5116700;28;20059;-88
2023/12/24 10:03:37;;;;;;;116.05;111.03;;;;;;;;;;5116604;28;20103;-87
2023/12/24 10:06:07;;;;;;;123.65;118.45;;;;;;;;;;5116776;28;20047;-87
2023/12/24 10:08:34;;;;;;;116.75;112.05;;;;;;;;;;5116743;28;20109;-88
2023/12/24 10:11:12;;;;;;;126.88;121.40;;;;;;;;;;5117210;28;20055;-88
2023/12/24 10:13:38;;;;;;;115.22;110.40;;;;;;;;;;5099257;28;20052;-88
2023/12/24 10:16:05;;;;;;;127.30;121.75;;;;;;;;;;5122033;28;20044;-87
2023/12/24 10:18:32;;;;;;;128.38;122.55;;;;;;;;;;5116085;28;20052;-88
2023/12/24 10:20:58;;;;;;;;;;;;;;;;;;5116792;28;20056;-87
2023/12/24 10:23:24;;;;;;;;;;;;;;;;;;5116865;28;20011;-87
2023/12/24 10:25:51;;;;;;;;;;;;;;;;;;5116778;28;19920;-87
2023/12/24 10:28:17;;;;;;;;;;;;;;;;;;5116303;28;20364;-87
2023/12/24 10:30:45;;;;;;;;;;;;;;;;;;5116620;28;19920;-87
2023/12/24 10:33:12;;;;;;;;;;;;;;;;;;5116602;28;19946;-88
2023/12/24 10:35:38;;;;;;;;;;;;;;;;;;5116673;28;19920;-87
2023/12/24 10:38:05;;;;;;;;;;;;;;;;;;5116425;28;19919;-87
2023/12/24 10:40:31;;;;;;;;;;;;;;;;;;5097935;28;19927;-87
2023/12/24 10:42:57;;;;;;;;;;;;;;;;;;5105741;28;19923;-88
2023/12/24 10:45:23;;;;;;;;;;;;;;;;;;5116575;28;20328;-88
2023/12/24 10:47:51;;;;;;;;;;;;;;;;;;5116316;28;19920;-87
2023/12/24 10:50:17;;;;;;;;;;;;;;;;;;5115953;28;19923;-88
2023/12/24 10:52:43;;;;;;;;;;;;;;;;;;5116527;28;19927;-87
2023/12/24 10:55:09;;;;;;;;;;;;;;;;;;5116453;28;19969;-87
2023/12/24 10:57:36;;;;;;;;;;;;;;;;;;5116286;28;20004;-87
2023/12/24 11:00:03;;;;;;;;;;;;;;;;;;5115916;28;19919;-88
2023/12/24 11:02:30;;;;;;;;;;;;;;;;;;5115730;28;19919;-88
2023/12/24 11:04:57;;;;;;;;;;;;;;;;;;5116379;28;20296;-89
2023/12/24 11:07:23;;;;;;;;;;;;;;;;;;5117199;28;19920;-90
2023/12/24 11:09:50;;;;;;;;;;;;;;;;;;5116973;28;19919;-89
2023/12/24 11:12:16;;;;;;;;;;;;;;;;;;5116895;28;19979;-89
2023/12/24 11:14:45;;;;;;;;;;;;;;;;;;5120122;28;19964;-90
2023/12/24 11:17:10;;;;;;;;;;;;;;;;;;5117577;28;19920;-90
2023/12/24 11:19:40;;;;;;;;;;;;;;;;;;5106037;28;19927;-90
2023/12/24 11:22:07;;;;;;;;;;;;;;;;;;5096424;28;19965;-89
2023/12/24 11:24:34;;;;;;;;;;;;;;;;;;5109546;28;19927;-90
2023/12/24 11:27:00;;;;;;;;;;;;;;;;;;5116706;28;19919;-89
2023/12/24 11:29:27;;;;;;;;;;;;;;;;;;5115225;28;19919;-90
2023/12/24 11:31:53;;;;;;;;;;;;;;;;;;5115649;28;20266;-90
2023/12/24 11:34:19;;;;;;;;;;;;;;;;;;5115495;28;19920;-90
2023/12/24 11:36:45;;;;;;;;;;;;;;;;;;5115168;28;19935;-91
2023/12/24 11:39:12;;;;;;;;;;;;;;;;;;5114992;28;20423;-90
2023/12/24 11:41:38;;;;;;;;;;;;;;;;;;5120635;28;19919;-89
2023/12/24 11:44:04;;;;;;;;;;;;;;;;;;5122599;28;19974;-90
2023/12/24 11:46:30;;;;;;;;;;;;;;;;;;5114588;28;19919;-90
2023/12/24 11:48:57;;;;;;;;;;;;;;;;;;5114985;28;20343;-90
2023/12/24 11:51:23;;;;;;;;;;;;;;;;;;5114857;28;19920;-89
2023/12/24 11:53:50;;;;;;;;;;;;;;;;;;5114991;28;19998;-89
2023/12/24 11:56:16;;;;;;;;;;;;;;;;;;5114816;28;19923;-91
2023/12/24 11:58:43;;;;;;;;;;;;;;;;;;5115096;28;19926;-90
2023/12/24 12:01:09;;;;;;;;;;;;;;;;;;5118010;28;20010;-90
2023/12/24 12:03:35;;;;;;;;;;;;;;;;;;5119164;28;19920;-91
2023/12/24 12:06:02;;;;;;;;;;;;;;;;;;5105590;28;19977;-91
2023/12/24 12:08:30;;;;;;;;;;;;;;;;;;5098789;28;19920;-89
2023/12/24 12:10:56;;;;;;;;;;;;;;;;;;5098484;28;19946;-90
2023/12/24 12:13:22;;;;;;;;;;;;;;;;;;5098523;28;19974;-89
2023/12/24 12:15:48;;;;;;;;;;;;;;;;;;5098280;28;19923;-89
2023/12/24 12:18:16;;;;;;;;;;;;;;;;;;5098259;28;19920;-89
2023/12/24 12:20:43;;;;;;;;;;;;;;;;;;5101370;28;20369;-91
2023/12/24 12:23:09;;;;;;;;;;;;;;;;;;5104103;28;20250;-90
2023/12/24 12:25:36;;;;;;;;;;;;;;;;;;5118890;28;20379;-91
2023/12/24 12:28:02;;;;;;;;;;;;;;;;;;5118984;28;19923;-91
2023/12/24 12:30:29;;;;;;;;;;;;;;;;;;5119037;28;19927;-91
2023/12/24 12:32:55;;;;;;;;;;;;;;;;;;5118856;28;19920;-90
2023/12/24 12:35:22;;;;;;;;;;;;;;;;;;5119184;28;20328;-90
2023/12/24 12:37:48;;;;;;;;;;;;;;;;;;5118670;28;19919;-90
2023/12/24 12:40:14;;;;;;;;;;;;;;;;;;5118227;28;19923;-90
2023/12/24 12:42:40;;;;;;;;;;;;;;;;;;5112921;28;19920;-89
2023/12/24 12:45:07;;;;;;;;;;;;;;;;;;5116832;28;19923;-90
2023/12/24 12:47:33;;;;;;;;;;;;;;;;;;5118019;28;19926;-90
2023/12/24 12:49:59;;;;;;;;;;;;;;;;;;5118124;28;19926;-91
2023/12/24 12:52:26;;;;;;;;;;;;;;;;;;5118441;28;20010;-90
2023/12/24 12:54:52;;;;;;;;;;;;;;;;;;5117681;28;19976;-90
2023/12/24 12:57:18;;;;;;;;;;;;;;;;;;5118183;28;20427;-91
2023/12/24 12:59:44;;;;;;;;;;;;;;;;;;5117864;28;19945;-91
2023/12/24 13:02:11;;;;;;;;;;;;;;;;;;5118078;28;19965;-90
2023/12/24 13:04:37;;;;;;;;;;;;;;;;;;5117734;28;19923;-90
2023/12/24 13:07:07;;;;;;;;;;;;;;;;;;5104440;28;19920;-91
2023/12/24 13:09:33;;;;;;;;;;;;;;;;;;5097643;28;19927;-90
2023/12/24 13:12:00;;;;;;;;;;;;;;;;;;5096868;28;19927;-91
2023/12/24 13:14:26;;;;;;;;;;;;;;;;;;5097725;28;19949;-90
2023/12/24 13:17:04;;;;;;;282.23;274.55;;;;;;;;;;5097535;28;20018;-90
2023/12/24 13:19:34;;;;;;;221.43;214.93;;;;;;;;;;5097481;28;20482;-89
2023/12/24 13:22:00;;;;;;;192.60;186.50;;;;;;;;;;5097949;28;20052;-89
2023/12/24 13:24:27;;;;;;;224.13;217.57;;;;;;;;;;5097666;28;20464;-90
2023/12/24 13:26:53;;;;;;;218.27;211.77;;;;;;;;;;5097176;28;20056;-89
2023/12/24 13:29:20;;;;;;;227.13;220.52;;;;;;;;;;5097404;28;20048;-89
2023/12/24 13:31:47;;;;;;;205.40;198.90;;;;;;;;;;5097780;28;20101;-89
2023/12/24 13:34:18;;;;;;;293.93;285.83;;;;;;;;;;5094963;28;20487;-89
2023/12/24 13:36:44;;;;;;;;;;;;;;;;;;5097459;28;20048;-89
2023/12/24 13:39:15;;;;;;;212.43;205.73;;;;;;;;;;5096075;28;19965;-87
2023/12/24 13:41:42;;;;;;;213.68;206.77;;;;;;;;;;5095263;28;20144;-87
2023/12/24 13:44:09;;;;;;;302.73;293.67;;;;;;;;;;5093954;28;20416;-87
2023/12/24 13:46:35;;;;;;;323.87;314.63;;;;;;;;;;5094340;28;20826;-87
2023/12/24 13:49:03;;;;;;;336.02;326.98;;;;;;;;;;5099768;28;20473;-87
2023/12/24 13:51:30;;;;;;;;;;;;;;;;;;5114657;28;20081;-88
2023/12/24 13:53:58;;;;;;;212.88;206.70;;;;;;;;;;5115341;28;19920;-88
2023/12/24 13:56:25;;;;;;;283.40;275.70;;;;;;;;;;5114482;28;20401;-88
2023/12/24 13:58:52;;;;;;;299.77;291.60;;;;;;;;;;5113242;28;20400;-88
2023/12/24 14:01:18;;;;;;;312.33;303.85;;;;;;;;;;5114200;28;20408;-89
2023/12/24 14:03:45;;;;;;;327.90;319.23;;;;;;;;;;5114325;28;20434;-88
2023/12/24 14:06:11;;;;;;;320.35;311.70;;;;;;;;;;5114463;28;20514;-88
2023/12/24 14:08:38;;;;;;;315.35;306.98;;;;;;;;;;5095502;28;20948;-88
2023/12/24 14:11:07;;;;;;;335.88;327.02;;;;;;;;;;5094821;28;20861;-89
2023/12/24 14:13:34;;;;;;;311.08;302.50;;;;;;;;;;5094694;28;20459;-89
2023/12/24 14:16:01;;;;;;;337.77;328.77;;;;;;;;;;5094464;28;20413;-89
2023/12/24 14:18:27;;;;;;;338.58;329.65;;;;;;;;;;5094884;28;20409;-89
2023/12/24 14:20:54;;;;;;;330.20;321.40;;;;;;;;;;5094504;28;20402;-89
2023/12/24 14:23:20;;;;;;;339.67;330.67;;;;;;;;;;5093066;28;20404;-89
2023/12/24 14:25:47;;;;;;;343.90;334.83;;;;;;;;;;5094145;28;20402;-89
2023/12/24 14:28:15;;;;;;;321.67;312.97;;;;;;;;;;5093687;28;20410;-88
2023/12/24 14:30:41;;;;;;;323.38;314.77;;;;;;;;;;5093971;28;20422;-88
2023/12/24 14:33:08;;;;;;;315.05;306.55;;;;;;;;;;5094295;28;20508;-88
2023/12/24 14:35:34;;;;;;;329.40;320.70;;;;;;;;;;5093546;28;20475;-88
2023/12/24 14:38:01;;;;;;;313.30;304.80;;;;;;;;;;5093857;28;20406;-89